sensor_id;sensor_type;location;lat;lon;timestamp;temperature;humidity
12684;DHT22;6406;59.312;18.058;2022-12-18T00:02:11;-1.50;94.00
12684;DHT22;6406;59.312;18.058;2022-12-18T00:04:38;-1.50;93.20
12684;DHT22;6406;59.312;18.058;2022-12-18T00:07:05;-1.50;91.30
12684;DHT22;6406;59.312;18.058;2022-12-18T00:09:32;-1.50;92.90
12684;DHT22;6406;59.312;18.058;2022-12-18T00:11:59;-1.40;88.20
12684;DHT22;6406;59.312;18.058;2022-12-18T00:14:27;-2.20;85.90
12684;DHT22;6406;59.312;18.058;2022-12-18T00:16:54;-1.40;84.50
12684;DHT22;6406;59.312;18.058;2022-12-18T00:19:23;-1.30;82.30
12684;DHT22;6406;59.312;18.058;2022-12-18T00:21:50;-0.80;80.10
12684;DHT22;6406;59.312;18.058;2022-12-18T00:24:17;-1.40;74.10
12684;DHT22;6406;59.312;18.058;2022-12-18T00:26:44;-1.40;78.80
12684;DHT22;6406;59.312;18.058;2022-12-18T00:29:13;-1.40;80.20
12684;DHT22;6406;59.312;18.058;2022-12-18T00:31:42;-1.20;75.20
12684;DHT22;6406;59.312;18.058;2022-12-18T00:34:10;-1.30;73.00
12684;DHT22;6406;59.312;18.058;2022-12-18T00:36:38;-1.10;75.10
12684;DHT22;6406;59.312;18.058;2022-12-18T00:39:05;-1.30;65.00
12684;DHT22;6406;59.312;18.058;2022-12-18T00:41:33;-1.30;64.80
12684;DHT22;6406;59.312;18.058;2022-12-18T00:44:23;-1.10;66.30
12684;DHT22;6406;59.312;18.058;2022-12-18T00:46:51;-1.30;71.60
12684;DHT22;6406;59.312;18.058;2022-12-18T00:49:19;-1.30;69.30
12684;DHT22;6406;59.312;18.058;2022-12-18T00:51:46;-1.30;62.90
12684;DHT22;6406;59.312;18.058;2022-12-18T00:54:14;-1.30;62.20
12684;DHT22;6406;59.312;18.058;2022-12-18T00:56:41;-1.30;60.90
12684;DHT22;6406;59.312;18.058;2022-12-18T00:59:08;-1.30;60.10
12684;DHT22;6406;59.312;18.058;2022-12-18T01:01:35;-1.30;58.10
12684;DHT22;6406;59.312;18.058;2022-12-18T01:04:04;-1.30;55.40
12684;DHT22;6406;59.312;18.058;2022-12-18T01:06:31;-1.30;50.90
12684;DHT22;6406;59.312;18.058;2022-12-18T01:08:58;-1.30;44.20
12684;DHT22;6406;59.312;18.058;2022-12-18T01:11:26;-1.00;46.70
12684;DHT22;6406;59.312;18.058;2022-12-18T01:13:54;-1.10;40.50
12684;DHT22;6406;59.312;18.058;2022-12-18T01:16:21;-1.30;42.40
12684;DHT22;6406;59.312;18.058;2022-12-18T01:18:51;-1.30;41.30
12684;DHT22;6406;59.312;18.058;2022-12-18T01:21:22;-1.30;34.50
12684;DHT22;6406;59.312;18.058;2022-12-18T01:23:51;-1.30;40.30
12684;DHT22;6406;59.312;18.058;2022-12-18T01:26:19;-1.30;43.90
12684;DHT22;6406;59.312;18.058;2022-12-18T01:28:46;-0.10;44.40
12684;DHT22;6406;59.312;18.058;2022-12-18T01:31:16;-1.30;41.90
12684;DHT22;6406;59.312;18.058;2022-12-18T01:33:43;-1.30;40.70
12684;DHT22;6406;59.312;18.058;2022-12-18T01:36:18;-1.20;39.50
12684;DHT22;6406;59.312;18.058;2022-12-18T01:38:47;-1.20;35.80
12684;DHT22;6406;59.312;18.058;2022-12-18T01:41:16;-1.20;35.30
12684;DHT22;6406;59.312;18.058;2022-12-18T01:43:47;-0.70;36.30
12684;DHT22;6406;59.312;18.058;2022-12-18T01:46:15;-1.20;30.00
12684;DHT22;6406;59.312;18.058;2022-12-18T01:48:42;-1.00;34.60
12684;DHT22;6406;59.312;18.058;2022-12-18T01:51:11;-1.20;38.90
12684;DHT22;6406;59.312;18.058;2022-12-18T01:53:40;-1.20;33.10
12684;DHT22;6406;59.312;18.058;2022-12-18T01:56:13;-1.20;33.70
12684;DHT22;6406;59.312;18.058;2022-12-18T01:58:52;-1.20;32.40
12684;DHT22;6406;59.312;18.058;2022-12-18T02:01:22;-1.20;33.10
12684;DHT22;6406;59.312;18.058;2022-12-18T02:03:49;-1.20;21.60
12684;DHT22;6406;59.312;18.058;2022-12-18T02:06:20;-1.20;20.30
12684;DHT22;6406;59.312;18.058;2022-12-18T02:08:57;-1.20;23.50
12684;DHT22;6406;59.312;18.058;2022-12-18T02:11:37;-1.20;19.30
12684;DHT22;6406;59.312;18.058;2022-12-18T02:14:15;-1.00;14.40
12684;DHT22;6406;59.312;18.058;2022-12-18T02:16:48;-1.20;9.30
12684;DHT22;6406;59.312;18.058;2022-12-18T02:19:31;-1.20;10.50
12684;DHT22;6406;59.312;18.058;2022-12-18T02:22:10;-1.20;9.40
12684;DHT22;6406;59.312;18.058;2022-12-18T02:24:45;-1.20;10.40
12684;DHT22;6406;59.312;18.058;2022-12-18T02:27:16;-1.20;7.50
12684;DHT22;6406;59.312;18.058;2022-12-18T02:29:46;-1.20;6.20
12684;DHT22;6406;59.312;18.058;2022-12-18T02:32:18;-1.20;8.70
12684;DHT22;6406;59.312;18.058;2022-12-18T02:34:48;-1.20;3.40
12684;DHT22;6406;59.312;18.058;2022-12-18T02:37:18;-1.20;3.00
12684;DHT22;6406;59.312;18.058;2022-12-18T02:39:48;-1.20;1.00
12684;DHT22;6406;59.312;18.058;2022-12-18T02:42:17;-0.70;1.00
12684;DHT22;6406;59.312;18.058;2022-12-18T02:44:47;-1.10;1.00
12684;DHT22;6406;59.312;18.058;2022-12-18T02:47:16;-1.20;1.00
12684;DHT22;6406;59.312;18.058;2022-12-18T02:49:49;-1.10;1.00
12684;DHT22;6406;59.312;18.058;2022-12-18T02:52:25;-1.10;1.00
12684;DHT22;6406;59.312;18.058;2022-12-18T02:55:02;-1.10;1.00
12684;DHT22;6406;59.312;18.058;2022-12-18T02:57:39;-1.10;1.00
12684;DHT22;6406;59.312;18.058;2022-12-18T03:00:11;-1.10;1.00
12684;DHT22;6406;59.312;18.058;2022-12-18T03:02:43;-1.10;1.00
12684;DHT22;6406;59.312;18.058;2022-12-18T03:05:14;-1.10;1.00
12684;DHT22;6406;59.312;18.058;2022-12-18T03:07:45;-1.10;1.00
12684;DHT22;6406;59.312;18.058;2022-12-18T03:10:15;-1.10;1.00
12684;DHT22;6406;59.312;18.058;2022-12-18T03:12:49;-1.10;1.00
12684;DHT22;6406;59.312;18.058;2022-12-18T03:15:22;-1.10;1.00
12684;DHT22;6406;59.312;18.058;2022-12-18T03:17:54;-1.10;1.00
12684;DHT22;6406;59.312;18.058;2022-12-18T03:20:25;-1.10;1.00
12684;DHT22;6406;59.312;18.058;2022-12-18T03:22:59;-1.10;1.00
12684;DHT22;6406;59.312;18.058;2022-12-18T03:25:28;-1.20;1.00
12684;DHT22;6406;59.312;18.058;2022-12-18T03:28:01;-1.20;1.00
12684;DHT22;6406;59.312;18.058;2022-12-18T03:30:33;-1.20;1.00
12684;DHT22;6406;59.312;18.058;2022-12-18T03:33:07;-1.20;1.00
12684;DHT22;6406;59.312;18.058;2022-12-18T03:35:38;-1.20;1.00
12684;DHT22;6406;59.312;18.058;2022-12-18T03:38:06;-1.20;1.00
12684;DHT22;6406;59.312;18.058;2022-12-18T03:40:43;-1.20;1.00
12684;DHT22;6406;59.312;18.058;2022-12-18T03:43:19;-1.20;1.00
12684;DHT22;6406;59.312;18.058;2022-12-18T03:45:51;-1.20;1.00
12684;DHT22;6406;59.312;18.058;2022-12-18T03:48:25;-1.20;1.00
12684;DHT22;6406;59.312;18.058;2022-12-18T03:50:57;-1.20;1.00
12684;DHT22;6406;59.312;18.058;2022-12-18T03:53:32;-1.20;1.00
12684;DHT22;6406;59.312;18.058;2022-12-18T03:56:04;-1.30;1.00
12684;DHT22;6406;59.312;18.058;2022-12-18T03:58:33;-1.20;1.00
12684;DHT22;6406;59.312;18.058;2022-12-18T04:01:04;-1.20;1.00
12684;DHT22;6406;59.312;18.058;2022-12-18T04:03:33;-1.30;1.00
12684;DHT22;6406;59.312;18.058;2022-12-18T04:06:02;-1.30;1.00
12684;DHT22;6406;59.312;18.058;2022-12-18T04:08:29;-1.30;1.00
12684;DHT22;6406;59.312;18.058;2022-12-18T04:10:56;-1.30;1.00
12684;DHT22;6406;59.312;18.058;2022-12-18T04:13:24;-1.30;1.00
12684;DHT22;6406;59.312;18.058;2022-12-18T04:15:55;-1.30;1.00
12684;DHT22;6406;59.312;18.058;2022-12-18T04:18:22;-1.30;1.00
12684;DHT22;6406;59.312;18.058;2022-12-18T04:20:49;-1.30;1.00
12684;DHT22;6406;59.312;18.058;2022-12-18T04:23:16;-1.30;1.00
12684;DHT22;6406;59.312;18.058;2022-12-18T04:25:43;-1.30;1.00
12684;DHT22;6406;59.312;18.058;2022-12-18T04:28:10;-1.30;1.00
12684;DHT22;6406;59.312;18.058;2022-12-18T04:30:37;-1.30;1.00
12684;DHT22;6406;59.312;18.058;2022-12-18T04:33:08;-1.40;1.00
12684;DHT22;6406;59.312;18.058;2022-12-18T04:35:36;-1.30;1.00
12684;DHT22;6406;59.312;18.058;2022-12-18T04:38:03;-1.30;1.00
12684;DHT22;6406;59.312;18.058;2022-12-18T04:40:30;-1.00;1.00
12684;DHT22;6406;59.312;18.058;2022-12-18T04:42:57;-1.20;1.00
12684;DHT22;6406;59.312;18.058;2022-12-18T04:45:23;-1.30;1.00
12684;DHT22;6406;59.312;18.058;2022-12-18T04:47:50;-0.20;1.00
12684;DHT22;6406;59.312;18.058;2022-12-18T04:50:19;-1.30;1.00
12684;DHT22;6406;59.312;18.058;2022-12-18T04:52:46;-1.30;1.00
12684;DHT22;6406;59.312;18.058;2022-12-18T04:55:13;-1.30;1.00
12684;DHT22;6406;59.312;18.058;2022-12-18T04:57:40;-1.60;1.00
12684;DHT22;6406;59.312;18.058;2022-12-18T05:00:08;-1.10;1.00
12684;DHT22;6406;59.312;18.058;2022-12-18T05:02:35;-1.40;1.00
12684;DHT22;6406;59.312;18.058;2022-12-18T05:05:02;-1.40;1.00
12684;DHT22;6406;59.312;18.058;2022-12-18T05:07:30;-1.40;1.00
12684;DHT22;6406;59.312;18.058;2022-12-18T05:09:57;-1.30;1.00
12684;DHT22;6406;59.312;18.058;2022-12-18T05:12:24;-1.40;1.00
12684;DHT22;6406;59.312;18.058;2022-12-18T05:14:51;-1.40;1.00
12684;DHT22;6406;59.312;18.058;2022-12-18T05:17:18;-1.30;1.00
12684;DHT22;6406;59.312;18.058;2022-12-18T05:19:45;-1.30;1.00
12684;DHT22;6406;59.312;18.058;2022-12-18T05:22:12;-1.30;1.00
12684;DHT22;6406;59.312;18.058;2022-12-18T05:24:40;-1.30;1.00
12684;DHT22;6406;59.312;18.058;2022-12-18T05:27:07;-1.30;1.00
12684;DHT22;6406;59.312;18.058;2022-12-18T05:29:34;-1.30;1.00
12684;DHT22;6406;59.312;18.058;2022-12-18T05:32:01;-1.30;1.00
12684;DHT22;6406;59.312;18.058;2022-12-18T05:34:28;-1.30;1.00
12684;DHT22;6406;59.312;18.058;2022-12-18T05:36:56;-1.20;1.00
12684;DHT22;6406;59.312;18.058;2022-12-18T05:39:23;-1.30;1.00
12684;DHT22;6406;59.312;18.058;2022-12-18T05:41:51;-1.30;1.00
12684;DHT22;6406;59.312;18.058;2022-12-18T05:44:18;-0.20;1.00
12684;DHT22;6406;59.312;18.058;2022-12-18T05:46:45;-1.20;1.00
12684;DHT22;6406;59.312;18.058;2022-12-18T05:49:12;-1.20;1.00
12684;DHT22;6406;59.312;18.058;2022-12-18T05:51:39;-1.10;1.00
12684;DHT22;6406;59.312;18.058;2022-12-18T05:54:06;-1.10;1.00
12684;DHT22;6406;59.312;18.058;2022-12-18T05:56:33;-1.10;1.00
12684;DHT22;6406;59.312;18.058;2022-12-18T05:59:01;-1.10;1.00
12684;DHT22;6406;59.312;18.058;2022-12-18T06:01:28;-1.00;1.00
12684;DHT22;6406;59.312;18.058;2022-12-18T06:03:55;-1.10;1.00
12684;DHT22;6406;59.312;18.058;2022-12-18T06:06:24;-1.10;1.00
12684;DHT22;6406;59.312;18.058;2022-12-18T06:08:52;-0.80;1.00
12684;DHT22;6406;59.312;18.058;2022-12-18T06:11:20;-1.10;1.00
12684;DHT22;6406;59.312;18.058;2022-12-18T06:13:50;-1.10;1.00
12684;DHT22;6406;59.312;18.058;2022-12-18T06:16:18;-1.10;1.00
12684;DHT22;6406;59.312;18.058;2022-12-18T06:18:45;-0.90;1.00
12684;DHT22;6406;59.312;18.058;2022-12-18T06:21:12;-1.00;1.00
12684;DHT22;6406;59.312;18.058;2022-12-18T06:23:39;-1.00;1.00
12684;DHT22;6406;59.312;18.058;2022-12-18T06:26:09;-1.00;1.00
12684;DHT22;6406;59.312;18.058;2022-12-18T06:28:37;-1.00;1.00
12684;DHT22;6406;59.312;18.058;2022-12-18T06:31:04;-1.00;1.00
12684;DHT22;6406;59.312;18.058;2022-12-18T06:33:33;-1.00;1.00
12684;DHT22;6406;59.312;18.058;2022-12-18T06:36:01;-1.00;1.00
12684;DHT22;6406;59.312;18.058;2022-12-18T06:38:28;-1.00;1.00
12684;DHT22;6406;59.312;18.058;2022-12-18T06:40:55;-1.00;1.00
12684;DHT22;6406;59.312;18.058;2022-12-18T06:43:22;-0.80;1.00
12684;DHT22;6406;59.312;18.058;2022-12-18T06:45:49;-1.00;1.00
12684;DHT22;6406;59.312;18.058;2022-12-18T06:48:18;-1.00;1.00
12684;DHT22;6406;59.312;18.058;2022-12-18T06:50:47;-0.90;1.00
12684;DHT22;6406;59.312;18.058;2022-12-18T06:53:14;-0.90;1.00
12684;DHT22;6406;59.312;18.058;2022-12-18T06:55:42;-0.90;1.00
12684;DHT22;6406;59.312;18.058;2022-12-18T06:58:09;-0.90;1.00
12684;DHT22;6406;59.312;18.058;2022-12-18T07:00:36;-0.80;1.00
12684;DHT22;6406;59.312;18.058;2022-12-18T07:03:03;-0.80;1.00
12684;DHT22;6406;59.312;18.058;2022-12-18T07:05:30;-0.80;1.00
12684;DHT22;6406;59.312;18.058;2022-12-18T07:07:59;-0.80;1.00
12684;DHT22;6406;59.312;18.058;2022-12-18T07:10:26;-0.80;1.00
12684;DHT22;6406;59.312;18.058;2022-12-18T07:12:53;-0.70;1.00
12684;DHT22;6406;59.312;18.058;2022-12-18T07:15:20;-0.70;1.00
12684;DHT22;6406;59.312;18.058;2022-12-18T07:17:47;-0.60;1.00
12684;DHT22;6406;59.312;18.058;2022-12-18T07:20:14;-0.60;1.00
12684;DHT22;6406;59.312;18.058;2022-12-18T07:22:41;-0.60;1.00
12684;DHT22;6406;59.312;18.058;2022-12-18T07:25:09;-0.60;1.00
12684;DHT22;6406;59.312;18.058;2022-12-18T07:27:36;-0.50;1.00
12684;DHT22;6406;59.312;18.058;2022-12-18T07:30:04;-0.50;1.00
12684;DHT22;6406;59.312;18.058;2022-12-18T07:32:31;-0.40;1.00
12684;DHT22;6406;59.312;18.058;2022-12-18T07:34:58;-0.40;1.00
12684;DHT22;6406;59.312;18.058;2022-12-18T07:37:25;-0.30;1.00
12684;DHT22;6406;59.312;18.058;2022-12-18T07:39:52;-0.30;1.00
12684;DHT22;6406;59.312;18.058;2022-12-18T07:42:21;-0.20;1.00
12684;DHT22;6406;59.312;18.058;2022-12-18T07:44:57;-0.20;1.00
12684;DHT22;6406;59.312;18.058;2022-12-18T07:47:24;-0.20;1.00
12684;DHT22;6406;59.312;18.058;2022-12-18T07:49:51;-0.10;1.00
12684;DHT22;6406;59.312;18.058;2022-12-18T07:52:19;-0.20;1.00
12684;DHT22;6406;59.312;18.058;2022-12-18T07:54:46;-0.10;1.00
12684;DHT22;6406;59.312;18.058;2022-12-18T07:57:15;-0.10;1.00
12684;DHT22;6406;59.312;18.058;2022-12-18T07:59:44;0.30;1.00
12684;DHT22;6406;59.312;18.058;2022-12-18T08:02:11;-0.10;1.00
12684;DHT22;6406;59.312;18.058;2022-12-18T08:04:38;0.00;1.00
12684;DHT22;6406;59.312;18.058;2022-12-18T08:07:05;0.00;1.00
12684;DHT22;6406;59.312;18.058;2022-12-18T08:09:32;0.10;1.00
12684;DHT22;6406;59.312;18.058;2022-12-18T08:11:58;0.50;1.00
12684;DHT22;6406;59.312;18.058;2022-12-18T08:14:26;0.10;1.00
12684;DHT22;6406;59.312;18.058;2022-12-18T08:16:54;0.50;1.00
12684;DHT22;6406;59.312;18.058;2022-12-18T08:19:21;0.20;1.00
12684;DHT22;6406;59.312;18.058;2022-12-18T08:21:48;0.10;1.00
12684;DHT22;6406;59.312;18.058;2022-12-18T08:24:15;0.20;1.00
12684;DHT22;6406;59.312;18.058;2022-12-18T08:26:42;0.10;1.00
12684;DHT22;6406;59.312;18.058;2022-12-18T08:29:10;0.30;1.00
12684;DHT22;6406;59.312;18.058;2022-12-18T08:31:37;0.20;1.00
12684;DHT22;6406;59.312;18.058;2022-12-18T08:34:05;0.20;1.00
12684;DHT22;6406;59.312;18.058;2022-12-18T08:36:32;0.30;1.00
12684;DHT22;6406;59.312;18.058;2022-12-18T08:38:59;0.30;1.00
12684;DHT22;6406;59.312;18.058;2022-12-18T08:41:26;0.30;1.00
12684;DHT22;6406;59.312;18.058;2022-12-18T08:43:53;0.40;1.00
12684;DHT22;6406;59.312;18.058;2022-12-18T08:46:39;1.20;1.00
12684;DHT22;6406;59.312;18.058;2022-12-18T08:49:09;-0.80;1.00
12684;DHT22;6406;59.312;18.058;2022-12-18T08:51:36;0.40;1.00
12684;DHT22;6406;59.312;18.058;2022-12-18T08:54:04;0.40;1.00
12684;DHT22;6406;59.312;18.058;2022-12-18T08:56:32;0.50;1.00
12684;DHT22;6406;59.312;18.058;2022-12-18T08:58:59;0.50;1.00
12684;DHT22;6406;59.312;18.058;2022-12-18T09:01:26;0.50;1.00
12684;DHT22;6406;59.312;18.058;2022-12-18T09:03:54;1.00;1.00
12684;DHT22;6406;59.312;18.058;2022-12-18T09:06:23;0.60;1.00
12684;DHT22;6406;59.312;18.058;2022-12-18T09:08:50;1.00;1.00
12684;DHT22;6406;59.312;18.058;2022-12-18T09:11:20;0.60;1.00
12684;DHT22;6406;59.312;18.058;2022-12-18T09:13:48;1.30;1.00
12684;DHT22;6406;59.312;18.058;2022-12-18T09:16:15;0.70;1.00
12684;DHT22;6406;59.312;18.058;2022-12-18T09:18:42;0.80;1.00
12684;DHT22;6406;59.312;18.058;2022-12-18T09:21:11;0.80;1.00
12684;DHT22;6406;59.312;18.058;2022-12-18T09:23:40;0.90;1.00
12684;DHT22;6406;59.312;18.058;2022-12-18T09:26:07;0.90;1.00
12684;DHT22;6406;59.312;18.058;2022-12-18T09:28:35;1.00;1.00
12684;DHT22;6406;59.312;18.058;2022-12-18T09:31:05;1.00;1.00
12684;DHT22;6406;59.312;18.058;2022-12-18T09:33:33;1.00;1.00
12684;DHT22;6406;59.312;18.058;2022-12-18T09:36:02;1.10;1.00
12684;DHT22;6406;59.312;18.058;2022-12-18T09:38:29;1.10;1.00
12684;DHT22;6406;59.312;18.058;2022-12-18T09:41:00;1.20;1.00
12684;DHT22;6406;59.312;18.058;2022-12-18T09:43:35;1.20;1.00
12684;DHT22;6406;59.312;18.058;2022-12-18T09:46:07;1.20;1.00
12684;DHT22;6406;59.312;18.058;2022-12-18T09:48:38;1.20;1.00
12684;DHT22;6406;59.312;18.058;2022-12-18T09:51:18;1.20;1.00
12684;DHT22;6406;59.312;18.058;2022-12-18T09:53:50;1.70;1.00
12684;DHT22;6406;59.312;18.058;2022-12-18T09:56:21;1.30;1.00
12684;DHT22;6406;59.312;18.058;2022-12-18T09:58:54;1.30;1.00
12684;DHT22;6406;59.312;18.058;2022-12-18T10:01:23;1.40;1.00
12684;DHT22;6406;59.312;18.058;2022-12-18T10:03:50;1.40;1.00
12684;DHT22;6406;59.312;18.058;2022-12-18T10:06:22;2.00;1.00
12684;DHT22;6406;59.312;18.058;2022-12-18T10:08:54;1.50;1.00
12684;DHT22;6406;59.312;18.058;2022-12-18T10:11:34;1.50;1.00
12684;DHT22;6406;59.312;18.058;2022-12-18T10:14:11;1.50;1.00
12684;DHT22;6406;59.312;18.058;2022-12-18T10:16:51;1.60;1.00
12684;DHT22;6406;59.312;18.058;2022-12-18T10:19:31;1.60;1.00
12684;DHT22;6406;59.312;18.058;2022-12-18T10:22:04;1.60;1.00
12684;DHT22;6406;59.312;18.058;2022-12-18T10:24:42;1.60;1.00
12684;DHT22;6406;59.312;18.058;2022-12-18T10:27:15;1.60;1.00
12684;DHT22;6406;59.312;18.058;2022-12-18T10:29:43;1.70;1.00
12684;DHT22;6406;59.312;18.058;2022-12-18T10:32:15;1.60;1.00
12684;DHT22;6406;59.312;18.058;2022-12-18T10:34:45;1.60;1.00
12684;DHT22;6406;59.312;18.058;2022-12-18T10:37:17;1.60;1.00
12684;DHT22;6406;59.312;18.058;2022-12-18T10:39:46;1.60;1.00
12684;DHT22;6406;59.312;18.058;2022-12-18T10:42:20;1.60;1.00
12684;DHT22;6406;59.312;18.058;2022-12-18T10:45:01;1.60;1.00
12684;DHT22;6406;59.312;18.058;2022-12-18T10:47:28;1.60;1.00
12684;DHT22;6406;59.312;18.058;2022-12-18T10:49:56;1.50;1.00
12684;DHT22;6406;59.312;18.058;2022-12-18T10:52:25;1.80;1.00
12684;DHT22;6406;59.312;18.058;2022-12-18T10:54:56;1.60;1.00
12684;DHT22;6406;59.312;18.058;2022-12-18T10:57:35;1.60;1.00
12684;DHT22;6406;59.312;18.058;2022-12-18T11:00:21;1.60;1.00
12684;DHT22;6406;59.312;18.058;2022-12-18T11:02:49;1.60;1.00
12684;DHT22;6406;59.312;18.058;2022-12-18T11:05:25;1.70;1.00
12684;DHT22;6406;59.312;18.058;2022-12-18T11:07:53;1.70;1.00
12684;DHT22;6406;59.312;18.058;2022-12-18T11:10:22;1.90;1.00
12684;DHT22;6406;59.312;18.058;2022-12-18T11:12:50;1.70;1.00
12684;DHT22;6406;59.312;18.058;2022-12-18T11:15:21;1.70;1.00
12684;DHT22;6406;59.312;18.058;2022-12-18T11:17:50;1.70;1.00
12684;DHT22;6406;59.312;18.058;2022-12-18T11:20:27;1.70;1.00
12684;DHT22;6406;59.312;18.058;2022-12-18T11:22:57;1.70;1.00
12684;DHT22;6406;59.312;18.058;2022-12-18T11:25:25;1.70;1.00
12684;DHT22;6406;59.312;18.058;2022-12-18T11:27:55;1.70;1.00
12684;DHT22;6406;59.312;18.058;2022-12-18T11:30:26;1.70;1.00
12684;DHT22;6406;59.312;18.058;2022-12-18T11:32:59;1.70;1.00
12684;DHT22;6406;59.312;18.058;2022-12-18T11:35:39;1.70;1.00
12684;DHT22;6406;59.312;18.058;2022-12-18T11:38:16;1.70;1.00
12684;DHT22;6406;59.312;18.058;2022-12-18T11:40:47;1.70;1.00
12684;DHT22;6406;59.312;18.058;2022-12-18T11:43:23;1.70;1.00
12684;DHT22;6406;59.312;18.058;2022-12-18T11:45:55;1.70;1.00
12684;DHT22;6406;59.312;18.058;2022-12-18T11:48:26;1.70;1.00
12684;DHT22;6406;59.312;18.058;2022-12-18T11:50:56;1.80;1.00
12684;DHT22;6406;59.312;18.058;2022-12-18T11:53:25;1.70;1.00
12684;DHT22;6406;59.312;18.058;2022-12-18T11:56:11;1.80;1.00
12684;DHT22;6406;59.312;18.058;2022-12-18T11:58:47;1.80;1.00
12684;DHT22;6406;59.312;18.058;2022-12-18T12:01:33;1.90;1.00
12684;DHT22;6406;59.312;18.058;2022-12-18T12:04:25;1.80;1.00
12684;DHT22;6406;59.312;18.058;2022-12-18T12:06:59;1.80;1.00
12684;DHT22;6406;59.312;18.058;2022-12-18T12:09:35;1.80;1.00
12684;DHT22;6406;59.312;18.058;2022-12-18T12:12:20;1.80;1.00
12684;DHT22;6406;59.312;18.058;2022-12-18T12:14:56;1.80;1.00
12684;DHT22;6406;59.312;18.058;2022-12-18T12:17:34;1.90;1.00
12684;DHT22;6406;59.312;18.058;2022-12-18T12:20:10;1.90;1.00
12684;DHT22;6406;59.312;18.058;2022-12-18T12:22:45;1.90;1.00
12684;DHT22;6406;59.312;18.058;2022-12-18T12:25:26;1.90;1.00
12684;DHT22;6406;59.312;18.058;2022-12-18T12:28:07;2.00;1.00
12684;DHT22;6406;59.312;18.058;2022-12-18T12:30:50;1.90;1.00
12684;DHT22;6406;59.312;18.058;2022-12-18T12:33:29;1.90;1.00
12684;DHT22;6406;59.312;18.058;2022-12-18T12:36:07;2.00;1.00
12684;DHT22;6406;59.312;18.058;2022-12-18T12:38:40;2.00;1.00
12684;DHT22;6406;59.312;18.058;2022-12-18T12:41:11;2.00;1.00
12684;DHT22;6406;59.312;18.058;2022-12-18T12:44:03;2.00;1.00
12684;DHT22;6406;59.312;18.058;2022-12-18T12:46:33;2.00;1.00
12684;DHT22;6406;59.312;18.058;2022-12-18T12:49:08;2.00;1.00
12684;DHT22;6406;59.312;18.058;2022-12-18T12:51:40;2.10;1.00
12684;DHT22;6406;59.312;18.058;2022-12-18T12:54:14;2.10;1.00
12684;DHT22;6406;59.312;18.058;2022-12-18T12:56:46;2.20;1.00
12684;DHT22;6406;59.312;18.058;2022-12-18T12:59:21;2.10;1.00
12684;DHT22;6406;59.312;18.058;2022-12-18T13:02:12;2.20;1.00
12684;DHT22;6406;59.312;18.058;2022-12-18T13:04:47;1.10;1.00
12684;DHT22;6406;59.312;18.058;2022-12-18T13:07:17;2.20;1.00
12684;DHT22;6406;59.312;18.058;2022-12-18T13:10:14;2.30;1.00
12684;DHT22;6406;59.312;18.058;2022-12-18T13:12:53;2.30;1.00
12684;DHT22;6406;59.312;18.058;2022-12-18T13:15:32;2.40;1.00
12684;DHT22;6406;59.312;18.058;2022-12-18T13:18:10;2.40;1.00
12684;DHT22;6406;59.312;18.058;2022-12-18T13:20:40;2.40;1.00
12684;DHT22;6406;59.312;18.058;2022-12-18T13:23:29;2.40;1.00
12684;DHT22;6406;59.312;18.058;2022-12-18T13:25:57;2.40;1.00
12684;DHT22;6406;59.312;18.058;2022-12-18T13:28:50;2.40;1.00
12684;DHT22;6406;59.312;18.058;2022-12-18T13:31:59;2.40;1.00
12684;DHT22;6406;59.312;18.058;2022-12-18T13:34:30;2.50;1.00
12684;DHT22;6406;59.312;18.058;2022-12-18T13:40:06;2.60;1.00
12684;DHT22;6406;59.312;18.058;2022-12-18T13:42:51;2.60;1.00
12684;DHT22;6406;59.312;18.058;2022-12-18T13:45:45;2.60;1.00
12684;DHT22;6406;59.312;18.058;2022-12-18T13:48:22;2.50;1.00
12684;DHT22;6406;59.312;18.058;2022-12-18T13:50:58;2.50;1.00
12684;DHT22;6406;59.312;18.058;2022-12-18T13:53:29;2.50;1.00
12684;DHT22;6406;59.312;18.058;2022-12-18T13:55:57;2.50;1.00
12684;DHT22;6406;59.312;18.058;2022-12-18T13:58:24;2.50;1.00
12684;DHT22;6406;59.312;18.058;2022-12-18T14:00:51;2.40;1.00
12684;DHT22;6406;59.312;18.058;2022-12-18T14:03:21;2.40;1.00
12684;DHT22;6406;59.312;18.058;2022-12-18T14:05:56;2.50;1.00
12684;DHT22;6406;59.312;18.058;2022-12-18T14:08:23;2.40;1.00
12684;DHT22;6406;59.312;18.058;2022-12-18T14:10:51;2.50;1.00
12684;DHT22;6406;59.312;18.058;2022-12-18T14:13:23;2.50;1.00
12684;DHT22;6406;59.312;18.058;2022-12-18T14:15:51;2.50;1.00
12684;DHT22;6406;59.312;18.058;2022-12-18T14:18:23;2.70;1.00
12684;DHT22;6406;59.312;18.058;2022-12-18T14:20:55;2.40;1.00
12684;DHT22;6406;59.312;18.058;2022-12-18T14:23:29;2.50;1.00
12684;DHT22;6406;59.312;18.058;2022-12-18T14:25:56;2.50;1.00
12684;DHT22;6406;59.312;18.058;2022-12-18T14:28:24;2.50;1.00
12684;DHT22;6406;59.312;18.058;2022-12-18T14:30:52;2.50;1.00
12684;DHT22;6406;59.312;18.058;2022-12-18T14:33:21;2.50;1.00
12684;DHT22;6406;59.312;18.058;2022-12-18T14:35:58;2.60;1.00
12684;DHT22;6406;59.312;18.058;2022-12-18T14:38:30;2.50;1.00
12684;DHT22;6406;59.312;18.058;2022-12-18T14:40:58;2.50;1.00
12684;DHT22;6406;59.312;18.058;2022-12-18T14:43:27;2.60;1.00
12684;DHT22;6406;59.312;18.058;2022-12-18T14:45:55;2.60;1.00
12684;DHT22;6406;59.312;18.058;2022-12-18T14:48:35;2.60;1.00
12684;DHT22;6406;59.312;18.058;2022-12-18T14:51:06;2.50;1.00
12684;DHT22;6406;59.312;18.058;2022-12-18T14:53:36;2.50;1.00
12684;DHT22;6406;59.312;18.058;2022-12-18T14:56:14;2.50;1.00
12684;DHT22;6406;59.312;18.058;2022-12-18T14:58:45;2.60;1.00
12684;DHT22;6406;59.312;18.058;2022-12-18T15:01:23;2.50;1.00
12684;DHT22;6406;59.312;18.058;2022-12-18T15:03:52;2.50;1.00
12684;DHT22;6406;59.312;18.058;2022-12-18T15:06:27;2.50;1.00
12684;DHT22;6406;59.312;18.058;2022-12-18T15:08:56;2.50;1.00
12684;DHT22;6406;59.312;18.058;2022-12-18T15:11:35;1.90;1.00
12684;DHT22;6406;59.312;18.058;2022-12-18T15:14:22;2.40;1.00
12684;DHT22;6406;59.312;18.058;2022-12-18T15:16:51;2.80;1.00
12684;DHT22;6406;59.312;18.058;2022-12-18T15:19:20;2.40;1.00
12684;DHT22;6406;59.312;18.058;2022-12-18T15:21:49;2.50;1.00
12684;DHT22;6406;59.312;18.058;2022-12-18T15:24:18;2.50;1.00
12684;DHT22;6406;59.312;18.058;2022-12-18T15:26:47;2.50;1.00
12684;DHT22;6406;59.312;18.058;2022-12-18T15:29:20;2.40;1.00
12684;DHT22;6406;59.312;18.058;2022-12-18T15:31:58;2.60;1.00
12684;DHT22;6406;59.312;18.058;2022-12-18T15:34:26;2.50;1.00
12684;DHT22;6406;59.312;18.058;2022-12-18T15:36:55;2.50;1.00
12684;DHT22;6406;59.312;18.058;2022-12-18T15:39:22;2.50;1.00
12684;DHT22;6406;59.312;18.058;2022-12-18T15:41:49;2.50;1.00
12684;DHT22;6406;59.312;18.058;2022-12-18T15:44:34;2.60;1.00
12684;DHT22;6406;59.312;18.058;2022-12-18T15:47:01;2.60;1.00
12684;DHT22;6406;59.312;18.058;2022-12-18T15:49:28;2.60;1.00
12684;DHT22;6406;59.312;18.058;2022-12-18T15:51:58;2.60;1.00
12684;DHT22;6406;59.312;18.058;2022-12-18T15:54:25;2.60;1.00
12684;DHT22;6406;59.312;18.058;2022-12-18T15:57:09;2.60;1.00
12684;DHT22;6406;59.312;18.058;2022-12-18T15:59:52;2.60;1.00
12684;DHT22;6406;59.312;18.058;2022-12-18T16:02:21;2.60;1.00
12684;DHT22;6406;59.312;18.058;2022-12-18T16:04:50;2.60;1.00
12684;DHT22;6406;59.312;18.058;2022-12-18T16:07:18;1.60;1.00
12684;DHT22;6406;59.312;18.058;2022-12-18T16:09:46;2.60;1.00
12684;DHT22;6406;59.312;18.058;2022-12-18T16:12:16;2.60;1.00
12684;DHT22;6406;59.312;18.058;2022-12-18T16:14:43;3.00;1.00
12684;DHT22;6406;59.312;18.058;2022-12-18T16:17:12;2.60;1.00
12684;DHT22;6406;59.312;18.058;2022-12-18T16:19:39;2.50;1.00